createdAt,value
2018-04-22T00:01:01.118Z,16.70
2018-04-22T00:03:30.729Z,16.60
2018-04-22T00:06:00.321Z,16.60
2018-04-22T00:08:29.131Z,16.60
2018-04-22T00:10:58.743Z,16.60
2018-04-22T00:13:27.617Z,16.50
2018-04-22T00:15:57.321Z,16.50
2018-04-22T00:18:26.932Z,16.40
2018-04-22T00:20:56.489Z,16.40
2018-04-22T00:23:26.073Z,16.40
2018-04-22T00:25:54.867Z,16.30
2018-04-22T00:28:23.695Z,16.40
2018-04-22T00:30:53.269Z,16.30
2018-04-22T00:33:22.081Z,16.30
2018-04-22T00:35:51.683Z,16.30
2018-04-22T00:38:20.469Z,16.20
2018-04-22T00:40:50.059Z,16.30
2018-04-22T00:43:18.945Z,16.20
2018-04-22T00:45:48.508Z,16.20
2018-04-22T00:48:17.439Z,16.20
2018-04-22T00:50:47.004Z,16.10
2018-04-22T00:53:15.841Z,16.10
2018-04-22T00:55:44.757Z,16.10
2018-04-22T00:58:14.312Z,16.10
2018-04-22T01:00:43.120Z,16.10
2018-04-22T01:03:11.946Z,16.10
2018-04-22T01:05:40.750Z,16.10
2018-04-22T01:08:09.570Z,16.00
2018-04-22T01:10:39.193Z,15.90
2018-04-22T01:13:07.977Z,15.90
2018-04-22T01:15:36.816Z,16.00
2018-04-22T01:18:05.615Z,15.90
2018-04-22T01:20:34.461Z,15.90
2018-04-22T01:23:03.269Z,15.90
2018-04-22T01:25:32.887Z,15.80
2018-04-22T01:28:02.463Z,15.80
2018-04-22T01:30:31.386Z,15.80
2018-04-22T01:33:00.186Z,15.80
2018-04-22T01:35:29.016Z,15.70
2018-04-22T01:37:58.639Z,15.70
2018-04-22T01:40:28.244Z,15.60
2018-04-22T01:42:57.163Z,15.60
2018-04-22T01:45:26.742Z,15.50
2018-04-22T01:47:55.564Z,15.50
2018-04-22T01:50:25.178Z,15.40
2018-04-22T01:52:53.985Z,15.40
2018-04-22T01:55:23.570Z,15.30
2018-04-22T01:57:52.369Z,15.20
2018-04-22T02:00:21.993Z,15.20
2018-04-22T02:02:50.822Z,15.20
2018-04-22T02:05:20.386Z,15.10
2018-04-22T02:07:50.020Z,15.10
2018-04-22T02:10:19.632Z,15.00
2018-04-22T02:12:48.432Z,15.00
2018-04-22T02:15:17.358Z,15.00
2018-04-22T02:17:46.282Z,15.00
2018-04-22T02:20:15.868Z,15.00
2018-04-22T02:22:44.667Z,14.90
2018-04-22T02:25:13.461Z,15.00
2018-04-22T02:27:42.373Z,15.00
2018-04-22T02:30:11.968Z,14.80
2018-04-22T02:32:40.783Z,14.80
2018-04-22T02:35:09.595Z,14.80
2018-04-22T02:37:38.426Z,14.80
2018-04-22T02:40:07.299Z,14.70
2018-04-22T02:42:36.132Z,14.70
2018-04-22T02:45:04.957Z,14.60
2018-04-22T02:47:33.825Z,14.60
2018-04-22T02:50:03.391Z,14.50
2018-04-22T02:52:32.979Z,14.50
2018-04-22T02:55:01.771Z,14.50
2018-04-22T02:57:30.651Z,14.50
2018-04-22T02:59:59.569Z,14.40
2018-04-22T03:02:28.392Z,14.40
2018-04-22T03:04:57.227Z,14.40
2018-04-22T03:07:26.041Z,14.40
2018-04-22T03:09:54.892Z,14.30
2018-04-22T03:12:23.693Z,14.30
2018-04-22T03:14:52.540Z,14.30
2018-04-22T03:17:22.135Z,14.20
2018-04-22T03:22:38.064Z,14.10
2018-04-22T03:25:07.660Z,14.00
2018-04-22T03:27:37.214Z,14.00
2018-04-22T03:30:06.039Z,14.00
2018-04-22T03:32:34.930Z,14.00
2018-04-22T03:35:04.519Z,13.90
2018-04-22T03:37:34.104Z,13.90
2018-04-22T03:40:03.706Z,13.80
2018-04-22T03:42:32.661Z,13.80
2018-04-22T03:45:01.541Z,13.80
2018-04-22T03:47:31.109Z,13.80
2018-04-22T03:49:59.969Z,13.70
2018-04-22T03:52:29.547Z,13.70
2018-04-22T03:54:58.371Z,13.70
2018-04-22T03:57:27.952Z,13.70
2018-04-22T03:59:56.869Z,13.60
2018-04-22T04:02:26.420Z,13.60
2018-04-22T04:04:55.368Z,13.60
2018-04-22T04:07:24.942Z,13.60
2018-04-22T04:09:53.863Z,13.50
2018-04-22T04:12:22.668Z,13.50
2018-04-22T04:14:52.261Z,13.50
2018-04-22T04:17:21.857Z,13.50
2018-04-22T04:20:12.257Z,13.50
2018-04-22T04:22:46.463Z,13.40
2018-04-22T04:28:21.474Z,13.40
2018-04-22T04:30:51.115Z,13.40
2018-04-22T04:33:20.017Z,13.30
2018-04-22T04:35:49.585Z,13.40
2018-04-22T04:38:18.385Z,13.40
2018-04-22T04:40:47.497Z,13.40
2018-04-22T04:43:16.304Z,13.50
2018-04-22T04:45:45.167Z,13.50
2018-04-22T04:48:14.709Z,13.50
2018-04-22T04:50:43.563Z,13.50
2018-04-22T04:53:12.381Z,13.50
2018-04-22T04:55:41.973Z,13.50
2018-04-22T04:58:10.810Z,13.50
2018-04-22T05:00:39.598Z,13.50
2018-04-22T05:03:09.215Z,13.50
2018-04-22T05:05:38.787Z,13.50
2018-04-22T05:08:07.605Z,13.50
2018-04-22T05:10:37.291Z,13.50
2018-04-22T05:13:06.822Z,13.50
2018-04-22T05:15:35.647Z,13.50
2018-04-22T05:18:05.240Z,13.60
2018-04-22T05:20:34.041Z,13.50
2018-04-22T05:23:02.843Z,13.60
2018-04-22T05:25:31.672Z,13.60
2018-04-22T05:28:01.270Z,13.70
2018-04-22T05:30:30.073Z,13.60
2018-04-22T05:32:58.985Z,13.70
2018-04-22T05:35:28.695Z,13.70
2018-04-22T05:37:58.284Z,13.80
2018-04-22T05:40:27.085Z,13.80
2018-04-22T05:42:56.657Z,13.80
2018-04-22T05:45:25.462Z,13.80
2018-04-22T05:47:54.437Z,13.90
2018-04-22T05:50:23.226Z,13.90
2018-04-22T05:52:52.144Z,13.90
2018-04-22T05:55:21.725Z,14.00
2018-04-22T05:57:51.466Z,14.00
2018-04-22T06:00:21.043Z,14.10
2018-04-22T06:02:50.746Z,14.10
2018-04-22T06:05:20.317Z,14.20
2018-04-22T06:07:49.252Z,14.20
2018-04-22T06:10:18.882Z,14.30
2018-04-22T06:12:48.458Z,14.30
2018-04-22T06:15:17.358Z,14.30
2018-04-22T06:17:46.202Z,14.40
2018-04-22T06:20:15.016Z,14.40
2018-04-22T06:22:43.842Z,14.50
2018-04-22T06:25:12.704Z,14.50
2018-04-22T06:27:42.327Z,14.70
2018-04-22T06:30:11.936Z,14.70
2018-04-22T06:32:40.788Z,14.70
2018-04-22T06:35:09.605Z,14.80
2018-04-22T06:37:38.438Z,14.90
2018-04-22T06:40:07.224Z,15.00
2018-04-22T06:42:36.060Z,15.10
2018-04-22T06:45:04.860Z,15.20
2018-04-22T06:47:33.692Z,15.30
2018-04-22T06:50:02.619Z,15.40
2018-04-22T06:52:32.199Z,15.50
2018-04-22T06:55:01.097Z,15.50
2018-04-22T06:57:29.934Z,15.50
2018-04-22T06:59:58.756Z,15.60
2018-04-22T07:02:27.562Z,15.70
2018-04-22T07:04:56.404Z,15.80
2018-04-22T07:07:25.243Z,15.90
2018-04-22T07:09:54.116Z,16.10
2018-04-22T07:12:22.896Z,16.20
2018-04-22T07:14:51.712Z,16.30
2018-04-22T07:17:20.582Z,16.40
2018-04-22T07:19:49.526Z,16.40
2018-04-22T07:22:18.349Z,16.50
2018-04-22T07:24:47.232Z,16.50
2018-04-22T07:27:16.054Z,16.50
2018-04-22T07:29:45.604Z,16.60
2018-04-22T07:32:14.478Z,16.60
2018-04-22T07:34:43.217Z,16.70
2018-04-22T07:37:12.041Z,16.80
2018-04-22T07:39:40.876Z,16.90
2018-04-22T07:42:09.715Z,17.10
2018-04-22T07:44:38.649Z,17.20
2018-04-22T07:47:07.441Z,17.20
2018-04-22T07:49:36.231Z,17.30
2018-04-22T07:52:05.095Z,17.40
2018-04-22T07:54:34.669Z,17.40
2018-04-22T07:57:03.613Z,17.40
2018-04-22T07:59:32.405Z,17.50
2018-04-22T08:02:02.010Z,17.60
2018-04-22T08:04:31.625Z,17.70
2018-04-22T08:07:01.223Z,17.90
2018-04-22T08:09:30.795Z,17.90
2018-04-22T08:12:00.390Z,18.00
2018-04-22T08:14:29.965Z,18.20
2018-04-22T08:16:58.772Z,18.20
2018-04-22T08:19:27.593Z,18.30
2018-04-22T08:21:57.203Z,18.30
2018-04-22T08:24:26.020Z,18.30
2018-04-22T08:26:54.858Z,18.40
2018-04-22T08:29:23.701Z,18.50
2018-04-22T08:31:53.268Z,18.60
2018-04-22T08:34:22.095Z,18.60
2018-04-22T08:36:50.911Z,18.80
2018-04-22T08:39:19.705Z,18.90
2018-04-22T08:41:48.514Z,18.90
2018-04-22T08:44:18.075Z,18.90
2018-04-22T08:46:46.864Z,18.90
2018-04-22T08:49:15.656Z,18.90
2018-04-22T08:51:45.469Z,19.00
2018-04-22T08:54:14.290Z,19.10
2018-04-22T08:56:43.162Z,19.20
2018-04-22T08:59:11.948Z,19.30
2018-04-22T09:01:40.865Z,19.40
2018-04-22T09:04:09.670Z,19.60
2018-04-22T09:06:38.484Z,19.70
2018-04-22T09:09:07.284Z,19.80
2018-04-22T09:11:36.461Z,19.90
2018-04-22T09:14:05.249Z,19.90
2018-04-22T09:16:34.809Z,20.00
2018-04-22T09:19:03.633Z,19.90
2018-04-22T09:21:32.461Z,20.00
2018-04-22T09:24:01.276Z,20.00
2018-04-22T09:26:30.061Z,20.10
2018-04-22T09:28:58.979Z,20.20
2018-04-22T09:31:28.640Z,20.20
2018-04-22T09:33:57.490Z,20.20
2018-04-22T09:36:27.096Z,20.30
2018-04-22T09:38:55.942Z,20.20
2018-04-22T09:41:24.875Z,20.30
2018-04-22T09:43:53.682Z,20.40
2018-04-22T09:46:22.483Z,20.40
2018-04-22T09:48:51.301Z,20.50
2018-04-22T09:51:20.911Z,20.60
2018-04-22T09:53:49.733Z,20.60
2018-04-22T09:56:19.342Z,20.80
2018-04-22T09:58:49.049Z,20.80
2018-04-22T10:01:19.884Z,20.80
2018-04-22T10:03:48.704Z,20.80
2018-04-22T10:06:17.531Z,20.90
2018-04-22T10:08:46.422Z,20.90
2018-04-22T10:11:16.259Z,20.90
2018-04-22T10:13:45.851Z,21.10
2018-04-22T10:16:14.770Z,21.10
2018-04-22T10:18:44.377Z,21.20
2018-04-22T10:21:15.450Z,21.20
2018-04-22T10:23:44.310Z,21.20
2018-04-22T10:26:14.115Z,21.20
2018-04-22T10:28:43.026Z,21.30
2018-04-22T10:31:12.637Z,21.40
2018-04-22T10:33:41.471Z,21.40
2018-04-22T10:36:10.312Z,21.50
2018-04-22T10:38:39.117Z,21.60
2018-04-22T10:41:08.683Z,21.70
2018-04-22T10:43:37.566Z,21.70
2018-04-22T10:46:06.413Z,21.80
2018-04-22T10:48:35.216Z,21.90
2018-04-22T10:51:04.003Z,21.90
2018-04-22T10:53:32.868Z,22.00
2018-04-22T10:56:02.436Z,22.10
2018-04-22T10:58:32.035Z,22.10
2018-04-22T11:01:00.829Z,22.20
2018-04-22T11:03:29.665Z,22.20
2018-04-22T11:05:58.487Z,22.30
2018-04-22T11:08:28.088Z,22.40
2018-04-22T11:10:57.680Z,22.50
2018-04-22T11:13:26.557Z,22.50
2018-04-22T11:15:56.130Z,22.70
2018-04-22T11:18:24.952Z,22.60
2018-04-22T11:20:54.559Z,22.90
2018-04-22T11:23:23.393Z,22.90
2018-04-22T11:25:53.003Z,23.00
2018-04-22T11:28:22.557Z,23.00
2018-04-22T11:30:51.397Z,23.00
2018-04-22T11:33:20.186Z,23.10
2018-04-22T11:35:49.114Z,23.10
2018-04-22T11:38:18.721Z,23.20
2018-04-22T11:40:48.319Z,23.20
2018-04-22T11:43:17.152Z,23.20
2018-04-22T11:45:45.994Z,23.20
2018-04-22T11:48:15.539Z,23.40
2018-04-22T11:50:44.347Z,23.30
2018-04-22T11:53:13.167Z,23.50
2018-04-22T11:55:41.956Z,23.60
2018-04-22T11:58:10.889Z,23.70
2018-04-22T12:00:40.447Z,23.80
2018-04-22T12:03:09.248Z,23.80
2018-04-22T12:05:38.809Z,24.10
2018-04-22T12:08:07.657Z,24.10
2018-04-22T12:10:36.461Z,24.20
2018-04-22T12:13:06.779Z,24.20
2018-04-22T12:15:35.676Z,24.20
2018-04-22T12:18:04.477Z,24.30
2018-04-22T12:20:34.110Z,24.40
2018-04-22T12:23:02.956Z,24.40
2018-04-22T12:25:31.787Z,24.50
2018-04-22T12:28:00.769Z,24.60
2018-04-22T12:30:29.727Z,24.80
2018-04-22T12:32:59.323Z,25.10
2018-04-22T12:35:28.145Z,25.10
2018-04-22T12:37:57.008Z,25.10
2018-04-22T12:40:26.562Z,25.10
2018-04-22T12:42:55.370Z,25.10
2018-04-22T12:45:24.969Z,25.30
2018-04-22T12:47:54.958Z,25.40
2018-04-22T12:50:23.742Z,25.40
2018-04-22T12:52:52.569Z,25.50
2018-04-22T12:55:22.145Z,25.70
2018-04-22T12:57:50.956Z,25.70
2018-04-22T13:00:20.531Z,25.80
2018-04-22T13:02:49.440Z,25.80
2018-04-22T13:05:19.037Z,25.80
2018-04-22T13:07:47.847Z,25.70
2018-04-22T13:10:17.398Z,25.80
2018-04-22T13:12:46.229Z,25.70
2018-04-22T13:15:15.039Z,25.70
2018-04-22T13:17:44.648Z,26.00
2018-04-22T13:20:14.246Z,26.10
2018-04-22T13:22:43.066Z,26.00
2018-04-22T13:25:11.881Z,26.10
2018-04-22T13:27:40.779Z,26.20
2018-04-22T13:30:10.366Z,26.30
2018-04-22T13:32:39.190Z,26.20
2018-04-22T13:35:08.002Z,26.30
2018-04-22T13:37:37.604Z,26.10
2018-04-22T13:40:07.188Z,26.10
2018-04-22T13:42:35.988Z,26.00
2018-04-22T13:45:04.815Z,26.00
2018-04-22T13:47:34.399Z,25.90
2018-04-22T13:50:03.264Z,25.90
2018-04-22T13:52:32.068Z,25.90
2018-04-22T13:55:00.960Z,25.90
2018-04-22T13:57:29.808Z,25.90
2018-04-22T13:59:58.634Z,25.80
2018-04-22T14:02:27.446Z,25.80
2018-04-22T14:04:56.273Z,25.70
2018-04-22T14:07:25.842Z,25.50
2018-04-22T14:09:54.658Z,25.50
2018-04-22T14:12:23.463Z,25.50
2018-04-22T14:14:52.272Z,25.60
2018-04-22T14:17:21.097Z,25.60
2018-04-22T14:19:50.734Z,25.70
2018-04-22T14:22:19.557Z,25.70
2018-04-22T14:24:48.380Z,25.70
2018-04-22T14:27:17.594Z,25.80
2018-04-22T14:29:47.302Z,25.90
2018-04-22T14:32:16.096Z,25.90
2018-04-22T14:34:44.904Z,25.90
2018-04-22T14:37:13.820Z,26.00
2018-04-22T14:39:43.410Z,26.10
2018-04-22T14:42:12.211Z,26.10
2018-04-22T14:44:59.607Z,26.20
2018-04-22T14:47:28.402Z,26.20
2018-04-22T14:49:58.013Z,26.30
2018-04-22T14:52:27.624Z,26.30
2018-04-22T14:54:56.425Z,26.40
2018-04-22T14:57:25.348Z,26.50
2018-04-22T14:59:54.918Z,26.70
2018-04-22T15:02:23.702Z,26.70
2018-04-22T15:04:52.504Z,26.90
2018-04-22T15:07:21.322Z,27.10
2018-04-22T15:09:50.164Z,27.20
2018-04-22T15:12:18.970Z,27.40
2018-04-22T15:14:47.835Z,27.50
2018-04-22T15:17:16.695Z,27.50
2018-04-22T15:19:46.289Z,28.70
2018-04-22T15:22:15.141Z,28.60
2018-04-22T15:24:43.971Z,31.60
2018-04-22T15:27:12.787Z,35.40
2018-04-22T15:29:41.600Z,38.50
2018-04-22T15:32:10.411Z,40.90
2018-04-22T15:34:40.001Z,43.90
2018-04-22T15:37:08.900Z,43.80
2018-04-22T15:39:38.489Z,45.40
2018-04-22T15:42:07.299Z,45.50
2018-04-22T15:44:36.881Z,46.00
2018-04-22T15:47:05.695Z,45.90
2018-04-22T15:49:35.267Z,45.40
2018-04-22T15:52:04.056Z,45.40
2018-04-22T15:54:32.882Z,45.00
2018-04-22T15:57:01.659Z,44.10
2018-04-22T15:59:30.462Z,43.30
2018-04-22T16:01:59.273Z,43.00
2018-04-22T16:04:28.094Z,43.20
2018-04-22T16:06:56.918Z,43.60
2018-04-22T16:09:25.742Z,43.80
2018-04-22T16:11:54.575Z,43.20
2018-04-22T16:14:23.385Z,40.70
2018-04-22T16:16:52.151Z,38.00
2018-04-22T16:19:20.959Z,35.60
2018-04-22T16:21:50.115Z,34.00
2018-04-22T16:24:19.697Z,31.50
2018-04-22T16:26:49.974Z,31.40
2018-04-22T16:29:18.788Z,31.00
2018-04-22T16:31:48.347Z,30.20
2018-04-22T16:34:17.161Z,30.20
2018-04-22T16:36:45.980Z,29.70
2018-04-22T16:39:14.784Z,29.30
2018-04-22T16:41:43.604Z,29.00
2018-04-22T16:44:12.418Z,28.70
2018-04-22T16:46:41.234Z,28.50
2018-04-22T16:49:10.817Z,28.40
2018-04-22T16:51:41.324Z,28.50
2018-04-22T16:54:10.168Z,28.40
2018-04-22T16:56:38.974Z,28.20
2018-04-22T16:59:08.542Z,27.40
2018-04-22T17:01:37.453Z,27.30
2018-04-22T17:04:07.020Z,26.60
2018-04-22T17:06:35.851Z,26.60
2018-04-22T17:09:06.457Z,26.10
2018-04-22T17:11:35.275Z,26.00
2018-04-22T17:14:04.058Z,25.80
2018-04-22T17:16:33.665Z,25.40
2018-04-22T17:19:02.460Z,25.40
2018-04-22T17:21:31.736Z,25.20
2018-04-22T17:24:00.548Z,25.10
2018-04-22T17:26:29.386Z,24.90
2018-04-22T17:28:58.319Z,24.80
2018-04-22T17:31:27.119Z,24.80
2018-04-22T17:33:55.941Z,24.70
2018-04-22T17:36:24.743Z,24.60
2018-04-22T17:38:54.366Z,24.30
2018-04-22T17:41:23.733Z,24.30
2018-04-22T17:43:52.629Z,24.10
2018-04-22T17:46:22.191Z,23.90
2018-04-22T17:48:51.011Z,23.80
2018-04-22T17:51:20.443Z,23.70
2018-04-22T17:53:49.307Z,23.60
2018-04-22T17:56:18.127Z,23.50
2018-04-22T17:58:46.932Z,23.40
2018-04-22T18:01:15.750Z,23.30
2018-04-22T18:03:45.356Z,23.00
2018-04-22T18:06:14.930Z,22.90
2018-04-22T18:08:43.724Z,22.90
2018-04-22T18:11:12.537Z,22.80
2018-04-22T18:13:41.397Z,22.60
2018-04-22T18:16:11.099Z,22.40
2018-04-22T18:18:40.684Z,22.30
2018-04-22T18:21:09.502Z,22.20
2018-04-22T18:23:38.336Z,22.20
2018-04-22T18:26:07.174Z,22.00
2018-04-22T18:28:36.736Z,21.80
2018-04-22T18:31:05.548Z,21.80
2018-04-22T18:33:34.400Z,21.70
2018-04-22T18:36:03.985Z,21.70
2018-04-22T18:38:32.931Z,21.70
2018-04-22T18:41:01.732Z,21.60
2018-04-22T18:43:31.317Z,21.60
2018-04-22T18:46:00.935Z,21.50
2018-04-22T18:48:29.879Z,21.50
2018-04-22T18:50:58.677Z,21.40
2018-04-22T18:53:28.277Z,21.30
2018-04-22T18:55:57.873Z,21.20
2018-04-22T18:58:27.434Z,21.10
2018-04-22T19:00:56.225Z,21.10
2018-04-22T19:03:25.061Z,21.00
2018-04-22T19:05:54.637Z,20.90
2018-04-22T19:08:23.454Z,20.90
2018-04-22T19:10:52.255Z,20.80
2018-04-22T19:13:21.073Z,20.80
2018-04-22T19:15:50.001Z,20.40
2018-04-22T19:18:19.585Z,20.80
2018-04-22T19:20:48.432Z,20.80
2018-04-22T19:23:17.287Z,20.90
2018-04-22T19:25:46.101Z,20.90
2018-04-22T19:28:14.920Z,21.00
2018-04-22T19:30:43.716Z,21.00
2018-04-22T19:33:13.274Z,21.00
2018-04-22T19:35:42.210Z,21.00
2018-04-22T19:38:11.811Z,21.00
2018-04-22T19:40:40.620Z,21.00
2018-04-22T19:43:10.213Z,20.90
2018-04-22T19:45:39.047Z,20.90
2018-04-22T19:48:07.861Z,20.90
2018-04-22T19:50:37.474Z,20.70
2018-04-22T19:53:06.281Z,20.70
2018-04-22T19:55:35.177Z,20.70
2018-04-22T19:58:04.102Z,20.60
2018-04-22T20:00:33.706Z,20.50
2018-04-22T20:03:02.530Z,20.50
2018-04-22T20:05:32.756Z,20.40
2018-04-22T20:08:01.989Z,20.30
2018-04-22T20:10:30.848Z,20.30
2018-04-22T20:12:59.681Z,20.30
2018-04-22T20:15:28.507Z,20.20
2018-04-22T20:17:57.343Z,20.10
2018-04-22T20:20:26.895Z,20.00
2018-04-22T20:22:55.718Z,20.00
2018-04-22T20:25:24.539Z,20.00
2018-04-22T20:27:54.127Z,19.80
2018-04-22T20:30:22.928Z,19.80
2018-04-22T20:32:52.521Z,19.70
2018-04-22T20:35:21.338Z,19.70
2018-04-22T20:37:50.126Z,19.70
2018-04-22T20:40:18.989Z,19.70
2018-04-22T20:42:47.807Z,19.60
2018-04-22T20:45:16.717Z,19.50
2018-04-22T20:47:46.327Z,19.50
2018-04-22T20:50:15.897Z,19.40
2018-04-22T20:52:44.707Z,19.40
2018-04-22T20:55:13.520Z,19.40
2018-04-22T20:57:42.320Z,19.40
2018-04-22T21:00:11.168Z,19.30
2018-04-22T21:02:39.949Z,19.30
2018-04-22T21:05:08.748Z,19.30
2018-04-22T21:07:37.545Z,19.20
2018-04-22T21:10:06.346Z,19.20
2018-04-22T21:12:35.195Z,19.20
2018-04-22T21:15:04.002Z,19.10
2018-04-22T21:17:32.819Z,19.10
2018-04-22T21:20:01.616Z,19.10
2018-04-22T21:22:30.443Z,19.10
2018-04-22T21:24:59.237Z,19.00
2018-04-22T21:27:28.825Z,19.00
2018-04-22T21:29:57.650Z,19.00
2018-04-22T21:32:26.425Z,19.00
2018-04-22T21:34:55.224Z,19.00
2018-04-22T21:37:24.031Z,19.00
2018-04-22T21:39:52.815Z,19.00
2018-04-22T21:42:21.654Z,19.00
2018-04-22T21:44:51.257Z,18.90
2018-04-22T21:47:20.876Z,18.90
2018-04-22T21:49:50.575Z,18.90
2018-04-22T21:52:19.461Z,18.80
2018-04-22T21:54:48.247Z,18.80
2018-04-22T21:57:17.091Z,18.80
2018-04-22T21:59:45.945Z,18.80
2018-04-22T22:02:15.519Z,18.70
2018-04-22T22:04:44.928Z,18.70
2018-04-22T22:07:13.722Z,18.70
2018-04-22T22:09:42.622Z,18.70
2018-04-22T22:12:12.203Z,18.70
2018-04-22T22:14:40.983Z,18.60
2018-04-22T22:17:09.876Z,18.60
2018-04-22T22:19:38.678Z,18.60
2018-04-22T22:22:07.483Z,18.60
2018-04-22T22:24:36.314Z,18.70
2018-04-22T22:27:05.878Z,18.70
2018-04-22T22:29:34.672Z,18.80
2018-04-22T22:32:03.504Z,18.80
2018-04-22T22:34:32.292Z,18.80
2018-04-22T22:37:01.124Z,18.80
2018-04-22T22:39:29.913Z,18.80
2018-04-22T22:41:58.798Z,18.80
2018-04-22T22:44:27.616Z,18.80
2018-04-22T22:46:57.196Z,18.70
2018-04-22T22:49:25.996Z,18.70
2018-04-22T22:51:56.333Z,18.70
2018-04-22T22:54:25.144Z,18.70
2018-04-22T22:56:53.957Z,18.60
2018-04-22T22:59:23.508Z,18.60
2018-04-22T23:01:52.684Z,18.50
2018-04-22T23:04:22.258Z,18.60
2018-04-22T23:06:51.060Z,18.50
2018-04-22T23:09:20.653Z,18.50
2018-04-22T23:11:49.766Z,18.50
2018-04-22T23:14:18.560Z,18.60
2018-04-22T23:16:47.368Z,18.50
2018-04-22T23:19:16.187Z,18.50
2018-04-22T23:21:45.607Z,18.50
2018-04-22T23:24:14.423Z,18.50
2018-04-22T23:26:43.241Z,18.50
2018-04-22T23:29:12.793Z,18.40
2018-04-22T23:31:42.089Z,18.40
2018-04-22T23:34:10.869Z,18.40
2018-04-22T23:36:40.491Z,18.40
2018-04-22T23:39:10.111Z,18.40
2018-04-22T23:41:41.277Z,18.40
2018-04-22T23:44:10.075Z,18.40
2018-04-22T23:46:38.867Z,18.40
2018-04-22T23:49:07.670Z,18.40
2018-04-22T23:51:38.293Z,18.40
2018-04-22T23:54:07.102Z,18.40
2018-04-22T23:56:36.684Z,18.40
2018-04-22T23:59:05.590Z,18.30
